createdAt,value
2023-04-21T00:04:18.055Z,78.93
2023-04-21T00:09:23.678Z,78.91
2023-04-21T00:14:25.553Z,78.83
2023-04-21T00:19:29.118Z,78.82
2023-04-21T00:24:30.978Z,78.86
2023-04-21T00:29:32.844Z,78.85
2023-04-21T00:34:34.999Z,78.81
2023-04-21T00:39:36.792Z,78.93
2023-04-21T00:44:40.760Z,78.88
2023-04-21T00:49:42.687Z,78.74
2023-04-21T00:54:45.144Z,78.73
2023-04-21T00:59:47.396Z,78.62
2023-04-21T01:04:49.538Z,78.56
2023-04-21T01:09:51.471Z,78.48
2023-04-21T01:14:54.642Z,78.45
2023-04-21T01:19:58.351Z,78.62
2023-04-21T01:25:01.584Z,78.57
2023-04-21T01:30:07.539Z,78.51
2023-04-21T01:35:10.559Z,78.36
2023-04-21T01:40:13.920Z,78.41
2023-04-21T01:45:17.018Z,78.27
2023-04-21T01:50:19.008Z,78.30
2023-04-21T01:55:21.083Z,78.34
2023-04-21T02:00:23.455Z,78.33
2023-04-21T02:05:25.328Z,78.30
2023-04-21T02:10:27.152Z,78.20
2023-04-21T02:15:29.162Z,78.43
2023-04-21T02:20:31.107Z,78.33
2023-04-21T02:25:33.249Z,78.25
2023-04-21T02:30:35.498Z,78.34
2023-04-21T02:35:37.290Z,78.33
2023-04-21T02:40:39.095Z,78.37
2023-04-21T02:45:40.953Z,78.20
2023-04-21T02:50:43.489Z,78.10
2023-04-21T02:55:45.736Z,78.23
2023-04-21T03:00:47.637Z,78.14
2023-04-21T03:05:49.367Z,77.94
2023-04-21T03:10:53.782Z,77.85
2023-04-21T03:15:57.727Z,77.87
2023-04-21T03:21:00.980Z,77.95
2023-04-21T03:26:07.689Z,77.87
2023-04-21T03:31:10.912Z,78.02
2023-04-21T03:36:17.845Z,77.92
2023-04-21T03:41:20.838Z,77.80
2023-04-21T03:46:23.524Z,77.99
2023-04-21T03:51:25.374Z,78.13
2023-04-21T03:56:27.170Z,78.05
2023-04-21T04:01:29.041Z,78.08
2023-04-21T04:06:30.744Z,78.07
2023-04-21T04:11:32.671Z,78.08
2023-04-21T04:16:36.053Z,78.13
2023-04-21T04:21:38.803Z,78.31
2023-04-21T04:26:40.654Z,78.29
2023-04-21T04:31:42.634Z,78.30
2023-04-21T04:36:45.645Z,78.53
2023-04-21T04:41:47.460Z,78.53
2023-04-21T04:46:49.757Z,78.63
2023-04-21T04:51:51.836Z,78.52
2023-04-21T04:56:53.882Z,78.65
2023-04-21T05:01:55.826Z,78.67
2023-04-21T05:06:57.749Z,79.00
2023-04-21T05:11:59.695Z,79.02
2023-04-21T05:17:08.307Z,79.10
2023-04-21T05:22:10.118Z,79.29
2023-04-21T05:27:12.009Z,79.46
2023-04-21T05:32:14.450Z,79.54
2023-04-21T05:37:16.565Z,79.95
2023-04-21T05:42:18.454Z,80.00
2023-04-21T05:47:20.318Z,80.29
2023-04-21T05:52:22.164Z,80.44
2023-04-21T05:57:27.262Z,80.47
2023-04-21T06:02:29.231Z,80.50
2023-04-21T06:07:31.429Z,80.67
2023-04-21T06:12:36.220Z,80.76
2023-04-21T06:17:38.111Z,80.93
2023-04-21T06:22:40.242Z,81.06
2023-04-21T06:27:42.033Z,81.19
2023-04-21T06:32:46.341Z,81.10
2023-04-21T06:37:48.112Z,80.97
2023-04-21T06:42:49.995Z,80.84
2023-04-21T06:47:53.105Z,80.90
2023-04-21T06:52:55.017Z,80.79
2023-04-21T06:57:57.020Z,80.38
2023-04-21T07:02:58.975Z,79.62
2023-04-21T07:08:00.945Z,79.30
2023-04-21T07:13:02.930Z,78.69
2023-04-21T07:18:04.925Z,78.31
2023-04-21T07:23:07.987Z,78.22
2023-04-21T07:28:11.444Z,78.24
2023-04-21T07:33:14.244Z,77.71
2023-04-21T07:38:16.446Z,77.56
2023-04-21T07:43:19.976Z,77.32
2023-04-21T07:48:21.958Z,76.91
2023-04-21T07:53:24.291Z,76.16
2023-04-21T07:58:26.338Z,75.45
2023-04-21T08:03:29.668Z,75.11
2023-04-21T08:08:32.159Z,74.67
2023-04-21T08:13:34.326Z,74.08
2023-04-21T08:18:36.761Z,72.96
2023-04-21T08:23:38.827Z,72.26
2023-04-21T08:28:40.810Z,72.09
2023-04-21T08:33:53.923Z,71.88
2023-04-21T08:39:02.876Z,71.54
2023-04-21T08:44:06.182Z,71.14
2023-04-21T08:49:10.932Z,69.73
2023-04-21T08:54:13.491Z,68.79
2023-04-21T08:59:15.724Z,68.16
2023-04-21T09:04:19.188Z,66.11
2023-04-21T09:09:21.643Z,64.89
2023-04-21T09:14:31.946Z,62.96
2023-04-21T09:19:34.958Z,61.42
2023-04-21T09:24:36.955Z,59.56
2023-04-21T09:29:39.444Z,59.07
2023-04-21T09:34:43.642Z,57.69
2023-04-21T09:40:03.351Z,56.77
2023-04-21T09:45:29.122Z,55.77
2023-04-21T09:51:11.338Z,53.90
2023-04-21T09:56:02.641Z,52.27
2023-04-21T10:01:04.998Z,52.71
2023-04-21T10:06:07.716Z,52.20
2023-04-21T10:11:12.430Z,52.53
2023-04-21T10:16:17.677Z,51.80
2023-04-21T10:21:22.269Z,51.84
2023-04-21T10:26:28.169Z,51.35
2023-04-21T10:31:35.886Z,50.53
2023-04-21T10:36:48.427Z,50.66
2023-04-21T10:41:51.436Z,50.21
2023-04-21T10:46:54.626Z,49.50
2023-04-21T10:52:05.522Z,49.73
2023-04-21T10:57:12.361Z,49.15
2023-04-21T11:02:16.735Z,48.65
2023-04-21T11:07:23.912Z,48.41
2023-04-21T11:12:36.897Z,48.72
2023-04-21T11:23:28.489Z,47.97
2023-04-21T11:28:44.383Z,48.95
2023-04-21T11:33:46.456Z,49.32
2023-04-21T11:38:51.451Z,49.55
2023-04-21T11:43:53.425Z,48.54
2023-04-21T11:48:59.662Z,48.57
2023-04-21T11:54:02.316Z,48.92
2023-04-21T11:59:09.462Z,49.04
2023-04-21T12:04:30.817Z,48.16
2023-04-21T12:09:36.465Z,48.20
2023-04-21T12:14:38.274Z,48.52
2023-04-21T12:19:42.962Z,47.92
2023-04-21T12:24:45.545Z,47.49
2023-04-21T12:29:47.436Z,47.60
2023-04-21T12:34:49.299Z,48.07
2023-04-21T12:39:57.543Z,48.39
2023-04-21T12:44:59.435Z,47.80
2023-04-21T12:50:01.406Z,47.10
2023-04-21T12:55:03.264Z,46.86
2023-04-21T13:00:06.028Z,46.51
2023-04-21T13:05:10.387Z,45.67
2023-04-21T13:10:12.375Z,45.78
2023-04-21T13:15:14.154Z,45.17
2023-04-21T13:20:20.455Z,45.26
2023-04-21T13:25:22.225Z,45.69
2023-04-21T13:30:24.293Z,46.13
2023-04-21T13:35:26.542Z,45.17
2023-04-21T13:40:28.876Z,44.89
2023-04-21T13:45:31.725Z,45.29
2023-04-21T13:50:33.599Z,45.68
2023-04-21T13:55:36.040Z,45.56
2023-04-21T14:00:39.034Z,45.23
2023-04-21T14:05:41.224Z,45.47
2023-04-21T14:10:43.767Z,45.64
2023-04-21T14:15:45.673Z,45.57
2023-04-21T14:20:47.554Z,45.14
2023-04-21T14:25:49.477Z,45.32
2023-04-21T14:30:51.323Z,45.40
2023-04-21T14:35:53.240Z,45.38
2023-04-21T14:40:55.299Z,45.41
2023-04-21T14:45:57.392Z,45.21
2023-04-21T14:50:59.762Z,45.38
2023-04-21T14:56:01.793Z,45.44
2023-04-21T15:01:03.875Z,44.88
2023-04-21T15:06:06.676Z,44.80
2023-04-21T15:11:08.639Z,44.89
2023-04-21T15:16:10.749Z,45.29
2023-04-21T15:21:12.647Z,45.83
2023-04-21T15:26:14.582Z,45.96
2023-04-21T15:31:16.584Z,45.71
2023-04-21T15:36:18.786Z,45.97
2023-04-21T15:41:20.845Z,46.24
2023-04-21T15:46:23.073Z,46.39
2023-04-21T15:51:25.077Z,45.95
2023-04-21T15:56:27.013Z,46.22
2023-04-21T16:01:28.852Z,46.30
2023-04-21T16:06:31.886Z,46.21
2023-04-21T16:11:34.513Z,45.61
2023-04-21T16:16:39.478Z,45.42
2023-04-21T16:21:43.107Z,45.20
2023-04-21T16:26:45.047Z,44.76
2023-04-21T16:31:47.514Z,44.68
2023-04-21T16:36:49.681Z,44.76
2023-04-21T16:41:51.527Z,44.74
2023-04-21T16:46:53.658Z,44.39
2023-04-21T16:51:57.349Z,44.87
2023-04-21T16:56:59.165Z,45.46
2023-04-21T17:02:01.087Z,46.01
2023-04-21T17:07:03.143Z,46.34
2023-04-21T17:12:05.118Z,46.88
2023-04-21T17:17:08.220Z,47.23
2023-04-21T17:22:10.287Z,47.67
2023-04-21T17:27:12.412Z,48.15
2023-04-21T17:32:14.600Z,48.23
2023-04-21T17:37:16.939Z,48.43
2023-04-21T17:42:18.793Z,48.65
2023-04-21T17:47:20.766Z,48.92
2023-04-21T17:52:23.954Z,48.63
2023-04-21T17:57:26.291Z,48.85
2023-04-21T18:02:28.140Z,49.14
2023-04-21T18:07:31.014Z,49.25
2023-04-21T18:12:32.859Z,49.40
2023-04-21T18:17:36.052Z,49.53
2023-04-21T18:22:38.355Z,49.48
2023-04-21T18:27:40.745Z,49.38
2023-04-21T18:32:42.646Z,49.35
2023-04-21T18:37:44.808Z,49.31
2023-04-21T18:42:46.889Z,49.54
2023-04-21T18:47:48.764Z,49.52
2023-04-21T18:52:52.512Z,49.66
2023-04-21T18:57:54.625Z,49.65
2023-04-21T19:02:57.298Z,49.70
2023-04-21T19:07:59.243Z,49.89
2023-04-21T19:13:12.524Z,50.06
2023-04-21T19:18:14.436Z,49.97
2023-04-21T19:23:16.373Z,50.17
2023-04-21T19:28:18.243Z,50.39
2023-04-21T19:33:20.511Z,50.31
2023-04-21T19:38:22.412Z,50.79
2023-04-21T19:43:24.298Z,50.82
2023-04-21T19:48:26.694Z,51.08
2023-04-21T19:53:28.694Z,51.13
2023-04-21T19:58:40.324Z,51.01
2023-04-21T20:03:43.105Z,51.29
2023-04-21T20:08:45.589Z,51.47
2023-04-21T20:13:47.774Z,51.84
2023-04-21T20:18:49.579Z,51.86
2023-04-21T20:23:51.386Z,52.05
2023-04-21T20:28:53.201Z,52.47
2023-04-21T20:33:56.468Z,52.42
2023-04-21T20:38:59.993Z,52.38
2023-04-21T20:44:01.941Z,52.72
2023-04-21T20:49:03.827Z,53.01
2023-04-21T20:54:05.660Z,53.08
2023-04-21T20:59:07.402Z,53.17
2023-04-21T21:04:09.693Z,53.32
2023-04-21T21:09:12.159Z,53.38
2023-04-21T21:14:14.085Z,53.40
2023-04-21T21:19:16.005Z,53.34
2023-04-21T21:24:17.841Z,53.36
2023-04-21T21:29:19.720Z,53.28
2023-04-21T21:34:21.777Z,53.34
2023-04-21T21:39:24.111Z,53.52
2023-04-21T21:44:28.039Z,53.63
2023-04-21T21:49:29.874Z,53.65
2023-04-21T21:54:31.952Z,53.88
2023-04-21T21:59:33.934Z,54.00
2023-04-21T22:04:37.926Z,54.01
2023-04-21T22:09:40.784Z,54.01
2023-04-21T22:14:42.966Z,54.20
2023-04-21T22:19:45.647Z,53.88
2023-04-21T22:24:47.559Z,53.96
2023-04-21T22:29:49.359Z,54.20
2023-04-21T22:34:51.237Z,54.12
2023-04-21T22:39:54.426Z,54.03
2023-04-21T22:44:56.890Z,54.10
2023-04-21T22:49:58.784Z,54.23
2023-04-21T22:55:00.785Z,54.24
2023-04-21T23:00:02.653Z,54.15
2023-04-21T23:05:04.803Z,54.00
2023-04-21T23:10:07.108Z,53.97
2023-04-21T23:15:09.236Z,53.90
2023-04-21T23:20:11.760Z,53.96
2023-04-21T23:25:13.617Z,53.92
2023-04-21T23:30:15.747Z,54.23
2023-04-21T23:35:17.776Z,54.41
2023-04-21T23:40:21.872Z,54.56
2023-04-21T23:45:24.932Z,54.66
2023-04-21T23:50:26.988Z,54.77
2023-04-21T23:55:28.945Z,54.94
